sensor_id;sensor_type;location;lat;lon;timestamp;P1;durP1;ratioP1;P2;durP2;ratioP2
58597;SDS011;60319;46.908;16.848;2022-07-06T00:00:07;4.97;;;4.50;;
58597;SDS011;60319;46.908;16.848;2022-07-06T00:05:09;5.72;;;4.72;;
58597;SDS011;60319;46.908;16.848;2022-07-06T00:10:10;4.55;;;4.18;;
58597;SDS011;60319;46.908;16.848;2022-07-06T00:15:10;4.68;;;4.38;;
58597;SDS011;60319;46.908;16.848;2022-07-06T00:20:11;5.15;;;4.75;;
58597;SDS011;60319;46.908;16.848;2022-07-06T00:25:11;4.78;;;4.32;;
58597;SDS011;60319;46.908;16.848;2022-07-06T00:30:12;9.30;;;4.38;;
58597;SDS011;60319;46.908;16.848;2022-07-06T00:35:12;6.40;;;4.70;;
58597;SDS011;60319;46.908;16.848;2022-07-06T00:40:13;4.97;;;4.32;;
58597;SDS011;60319;46.908;16.848;2022-07-06T00:45:15;5.10;;;4.70;;
58597;SDS011;60319;46.908;16.848;2022-07-06T00:50:16;5.10;;;4.70;;
58597;SDS011;60319;46.908;16.848;2022-07-06T00:55:21;5.10;;;4.68;;
58597;SDS011;60319;46.908;16.848;2022-07-06T01:00:25;5.05;;;4.50;;
58597;SDS011;60319;46.908;16.848;2022-07-06T01:05:27;5.20;;;4.80;;
58597;SDS011;60319;46.908;16.848;2022-07-06T01:10:27;6.38;;;5.18;;
58597;SDS011;60319;46.908;16.848;2022-07-06T01:15:28;5.70;;;5.30;;
58597;SDS011;60319;46.908;16.848;2022-07-06T01:20:28;5.88;;;5.35;;
58597;SDS011;60319;46.908;16.848;2022-07-06T01:25:29;6.03;;;5.53;;
58597;SDS011;60319;46.908;16.848;2022-07-06T01:30:29;5.43;;;4.97;;
58597;SDS011;60319;46.908;16.848;2022-07-06T01:35:31;5.70;;;5.30;;
58597;SDS011;60319;46.908;16.848;2022-07-06T01:40:35;5.22;;;4.88;;
58597;SDS011;60319;46.908;16.848;2022-07-06T01:45:36;5.68;;;5.18;;
58597;SDS011;60319;46.908;16.848;2022-07-06T01:50:36;5.75;;;5.25;;
58597;SDS011;60319;46.908;16.848;2022-07-06T01:55:37;5.80;;;5.25;;
58597;SDS011;60319;46.908;16.848;2022-07-06T02:00:40;6.05;;;5.50;;
58597;SDS011;60319;46.908;16.848;2022-07-06T02:05:40;5.57;;;5.15;;
58597;SDS011;60319;46.908;16.848;2022-07-06T02:10:41;6.13;;;5.22;;
58597;SDS011;60319;46.908;16.848;2022-07-06T02:15:41;5.80;;;5.20;;
58597;SDS011;60319;46.908;16.848;2022-07-06T02:20:42;5.10;;;4.68;;
58597;SDS011;60319;46.908;16.848;2022-07-06T02:25:42;4.88;;;4.57;;
58597;SDS011;60319;46.908;16.848;2022-07-06T02:30:43;5.75;;;5.35;;
58597;SDS011;60319;46.908;16.848;2022-07-06T02:35:43;5.60;;;4.93;;
58597;SDS011;60319;46.908;16.848;2022-07-06T02:40:44;5.88;;;5.35;;
58597;SDS011;60319;46.908;16.848;2022-07-06T02:45:44;5.32;;;4.93;;
58597;SDS011;60319;46.908;16.848;2022-07-06T02:50:45;5.57;;;5.18;;
58597;SDS011;60319;46.908;16.848;2022-07-06T02:55:45;5.28;;;4.72;;
58597;SDS011;60319;46.908;16.848;2022-07-06T03:00:46;4.63;;;4.25;;
58597;SDS011;60319;46.908;16.848;2022-07-06T03:05:46;5.07;;;4.53;;
58597;SDS011;60319;46.908;16.848;2022-07-06T03:10:48;7.20;;;5.00;;
58597;SDS011;60319;46.908;16.848;2022-07-06T03:15:49;5.95;;;5.40;;
58597;SDS011;60319;46.908;16.848;2022-07-06T03:20:49;6.13;;;5.00;;
58597;SDS011;60319;46.908;16.848;2022-07-06T03:25:50;5.95;;;5.43;;
58597;SDS011;60319;46.908;16.848;2022-07-06T03:30:50;4.47;;;4.18;;
58597;SDS011;60319;46.908;16.848;2022-07-06T03:35:51;5.53;;;5.03;;
58597;SDS011;60319;46.908;16.848;2022-07-06T03:40:51;5.43;;;4.95;;
58597;SDS011;60319;46.908;16.848;2022-07-06T03:45:51;6.80;;;4.78;;
58597;SDS011;60319;46.908;16.848;2022-07-06T03:50:52;6.35;;;4.32;;
58597;SDS011;60319;46.908;16.848;2022-07-06T03:55:52;5.85;;;4.60;;
58597;SDS011;60319;46.908;16.848;2022-07-06T04:01:15;4.75;;;4.28;;
58597;SDS011;60319;46.908;16.848;2022-07-06T04:06:15;5.20;;;4.47;;
58597;SDS011;60319;46.908;16.848;2022-07-06T04:11:16;5.45;;;4.95;;
58597;SDS011;60319;46.908;16.848;2022-07-06T04:16:16;5.10;;;4.68;;
58597;SDS011;60319;46.908;16.848;2022-07-06T04:21:17;4.72;;;4.30;;
58597;SDS011;60319;46.908;16.848;2022-07-06T04:26:17;4.55;;;3.70;;
58597;SDS011;60319;46.908;16.848;2022-07-06T04:31:17;4.70;;;4.30;;
58597;SDS011;60319;46.908;16.848;2022-07-06T04:36:18;4.68;;;4.28;;
58597;SDS011;60319;46.908;16.848;2022-07-06T04:41:18;5.30;;;3.75;;
58597;SDS011;60319;46.908;16.848;2022-07-06T04:46:19;6.10;;;3.80;;
58597;SDS011;60319;46.908;16.848;2022-07-06T04:51:19;5.22;;;3.38;;
58597;SDS011;60319;46.908;16.848;2022-07-06T04:56:20;3.83;;;3.08;;
58597;SDS011;60319;46.908;16.848;2022-07-06T05:01:20;3.92;;;3.63;;
58597;SDS011;60319;46.908;16.848;2022-07-06T05:06:21;3.97;;;3.67;;
58597;SDS011;60319;46.908;16.848;2022-07-06T05:11:21;5.00;;;3.47;;
58597;SDS011;60319;46.908;16.848;2022-07-06T05:16:22;3.70;;;3.40;;
58597;SDS011;60319;46.908;16.848;2022-07-06T05:21:22;3.13;;;2.92;;
58597;SDS011;60319;46.908;16.848;2022-07-06T05:26:23;4.80;;;3.90;;
58597;SDS011;60319;46.908;16.848;2022-07-06T05:31:24;3.63;;;3.33;;
58597;SDS011;60319;46.908;16.848;2022-07-06T05:36:25;3.45;;;3.20;;
58597;SDS011;60319;46.908;16.848;2022-07-06T05:41:25;3.75;;;3.17;;
58597;SDS011;60319;46.908;16.848;2022-07-06T05:46:26;3.92;;;3.58;;
58597;SDS011;60319;46.908;16.848;2022-07-06T05:51:28;6.57;;;3.60;;
58597;SDS011;60319;46.908;16.848;2022-07-06T05:56:28;3.15;;;2.95;;
58597;SDS011;60319;46.908;16.848;2022-07-06T06:01:29;3.92;;;2.90;;
58597;SDS011;60319;46.908;16.848;2022-07-06T06:06:29;3.00;;;2.80;;
58597;SDS011;60319;46.908;16.848;2022-07-06T06:11:31;4.18;;;3.78;;
58597;SDS011;60319;46.908;16.848;2022-07-06T06:16:31;3.45;;;3.15;;
58597;SDS011;60319;46.908;16.848;2022-07-06T06:21:32;3.38;;;3.08;;
58597;SDS011;60319;46.908;16.848;2022-07-06T06:26:32;4.72;;;3.30;;
58597;SDS011;60319;46.908;16.848;2022-07-06T06:31:33;3.45;;;3.15;;
58597;SDS011;60319;46.908;16.848;2022-07-06T06:36:33;3.42;;;3.13;;
58597;SDS011;60319;46.908;16.848;2022-07-06T06:41:34;3.15;;;2.90;;
58597;SDS011;60319;46.908;16.848;2022-07-06T06:46:34;3.65;;;3.28;;
58597;SDS011;60319;46.908;16.848;2022-07-06T06:51:35;3.70;;;2.97;;
58597;SDS011;60319;46.908;16.848;2022-07-06T06:56:37;3.63;;;3.33;;
58597;SDS011;60319;46.908;16.848;2022-07-06T07:01:38;4.15;;;3.30;;
58597;SDS011;60319;46.908;16.848;2022-07-06T07:06:38;3.50;;;3.20;;
58597;SDS011;60319;46.908;16.848;2022-07-06T07:11:39;3.65;;;3.08;;
58597;SDS011;60319;46.908;16.848;2022-07-06T07:16:40;2.70;;;2.55;;
58597;SDS011;60319;46.908;16.848;2022-07-06T07:21:40;2.80;;;2.60;;
58597;SDS011;60319;46.908;16.848;2022-07-06T07:26:41;2.67;;;2.45;;
58597;SDS011;60319;46.908;16.848;2022-07-06T07:31:41;2.75;;;2.45;;
58597;SDS011;60319;46.908;16.848;2022-07-06T07:36:42;2.55;;;2.13;;
58597;SDS011;60319;46.908;16.848;2022-07-06T07:41:42;2.63;;;2.40;;
58597;SDS011;60319;46.908;16.848;2022-07-06T07:46:43;3.85;;;2.50;;
58597;SDS011;60319;46.908;16.848;2022-07-06T07:51:43;3.22;;;2.53;;
58597;SDS011;60319;46.908;16.848;2022-07-06T07:56:44;3.47;;;2.22;;
58597;SDS011;60319;46.908;16.848;2022-07-06T08:01:44;2.13;;;1.88;;
58597;SDS011;60319;46.908;16.848;2022-07-06T08:06:45;2.53;;;2.33;;
58597;SDS011;60319;46.908;16.848;2022-07-06T08:11:46;2.30;;;2.10;;
58597;SDS011;60319;46.908;16.848;2022-07-06T08:16:46;2.45;;;2.22;;
58597;SDS011;60319;46.908;16.848;2022-07-06T08:21:47;2.65;;;2.40;;
58597;SDS011;60319;46.908;16.848;2022-07-06T08:26:47;2.97;;;2.08;;
58597;SDS011;60319;46.908;16.848;2022-07-06T08:31:48;3.85;;;2.17;;
58597;SDS011;60319;46.908;16.848;2022-07-06T08:36:48;2.45;;;2.20;;
58597;SDS011;60319;46.908;16.848;2022-07-06T08:41:49;4.00;;;2.30;;
58597;SDS011;60319;46.908;16.848;2022-07-06T08:46:51;2.10;;;1.90;;
58597;SDS011;60319;46.908;16.848;2022-07-06T08:51:54;2.80;;;2.00;;
58597;SDS011;60319;46.908;16.848;2022-07-06T08:56:55;2.45;;;2.00;;
58597;SDS011;60319;46.908;16.848;2022-07-06T09:01:55;2.50;;;2.30;;
58597;SDS011;60319;46.908;16.848;2022-07-06T09:06:56;3.00;;;2.40;;
58597;SDS011;60319;46.908;16.848;2022-07-06T09:11:57;16.35;;;3.60;;
58597;SDS011;60319;46.908;16.848;2022-07-06T09:17:02;2.10;;;1.90;;
58597;SDS011;60319;46.908;16.848;2022-07-06T09:22:23;2.40;;;2.20;;
58597;SDS011;60319;46.908;16.848;2022-07-06T09:27:32;3.28;;;2.50;;
58597;SDS011;60319;46.908;16.848;2022-07-06T09:32:38;2.50;;;2.30;;
58597;SDS011;60319;46.908;16.848;2022-07-06T09:37:42;2.60;;;1.95;;
58597;SDS011;60319;46.908;16.848;2022-07-06T09:42:42;3.10;;;2.47;;
58597;SDS011;60319;46.908;16.848;2022-07-06T09:47:47;2.20;;;2.10;;
58597;SDS011;60319;46.908;16.848;2022-07-06T09:52:54;2.70;;;2.50;;
58597;SDS011;60319;46.908;16.848;2022-07-06T09:57:55;4.65;;;2.42;;
58597;SDS011;60319;46.908;16.848;2022-07-06T10:02:56;2.47;;;2.08;;
58597;SDS011;60319;46.908;16.848;2022-07-06T10:07:58;3.13;;;2.10;;
58597;SDS011;60319;46.908;16.848;2022-07-06T10:12:59;20.08;;;4.50;;
58597;SDS011;60319;46.908;16.848;2022-07-06T10:18:00;2.40;;;2.20;;
58597;SDS011;60319;46.908;16.848;2022-07-06T10:23:03;2.67;;;1.92;;
58597;SDS011;60319;46.908;16.848;2022-07-06T10:28:05;2.10;;;2.00;;
58597;SDS011;60319;46.908;16.848;2022-07-06T10:33:13;2.63;;;2.08;;
58597;SDS011;60319;46.908;16.848;2022-07-06T10:38:15;2.97;;;2.33;;
58597;SDS011;60319;46.908;16.848;2022-07-06T10:43:17;2.42;;;2.22;;
58597;SDS011;60319;46.908;16.848;2022-07-06T10:48:18;3.42;;;2.33;;
58597;SDS011;60319;46.908;16.848;2022-07-06T10:53:21;2.90;;;2.35;;
58597;SDS011;60319;46.908;16.848;2022-07-06T10:58:41;2.60;;;2.40;;
58597;SDS011;60319;46.908;16.848;2022-07-06T11:09:06;2.20;;;2.10;;
58597;SDS011;60319;46.908;16.848;2022-07-06T11:14:18;4.38;;;2.40;;
58597;SDS011;60319;46.908;16.848;2022-07-06T11:19:22;3.10;;;2.20;;
58597;SDS011;60319;46.908;16.848;2022-07-06T11:24:24;2.33;;;2.13;;
58597;SDS011;60319;46.908;16.848;2022-07-06T11:29:27;4.07;;;2.40;;
58597;SDS011;60319;46.908;16.848;2022-07-06T11:34:32;5.32;;;2.83;;
58597;SDS011;60319;46.908;16.848;2022-07-06T11:39:38;2.28;;;2.17;;
58597;SDS011;60319;46.908;16.848;2022-07-06T11:44:41;2.63;;;2.42;;
58597;SDS011;60319;46.908;16.848;2022-07-06T11:49:42;2.53;;;2.33;;
58597;SDS011;60319;46.908;16.848;2022-07-06T11:54:42;2.35;;;2.10;;
58597;SDS011;60319;46.908;16.848;2022-07-06T11:59:46;2.50;;;2.30;;
58597;SDS011;60319;46.908;16.848;2022-07-06T12:04:51;2.55;;;2.13;;
58597;SDS011;60319;46.908;16.848;2022-07-06T12:09:52;2.90;;;2.40;;
58597;SDS011;60319;46.908;16.848;2022-07-06T12:14:53;2.67;;;2.45;;
58597;SDS011;60319;46.908;16.848;2022-07-06T12:19:54;2.92;;;2.65;;
58597;SDS011;60319;46.908;16.848;2022-07-06T12:24:55;2.88;;;2.35;;
58597;SDS011;60319;46.908;16.848;2022-07-06T12:30:04;3.15;;;2.80;;
58597;SDS011;60319;46.908;16.848;2022-07-06T12:35:09;2.85;;;2.63;;
58597;SDS011;60319;46.908;16.848;2022-07-06T12:40:12;2.83;;;2.63;;
58597;SDS011;60319;46.908;16.848;2022-07-06T12:45:13;3.13;;;2.60;;
58597;SDS011;60319;46.908;16.848;2022-07-06T12:50:14;2.55;;;2.35;;
58597;SDS011;60319;46.908;16.848;2022-07-06T12:55:14;2.50;;;2.30;;
58597;SDS011;60319;46.908;16.848;2022-07-06T13:00:16;2.75;;;2.55;;
58597;SDS011;60319;46.908;16.848;2022-07-06T13:05:17;2.95;;;2.70;;
58597;SDS011;60319;46.908;16.848;2022-07-06T13:10:17;2.40;;;2.20;;
58597;SDS011;60319;46.908;16.848;2022-07-06T13:15:18;3.75;;;2.25;;
58597;SDS011;60319;46.908;16.848;2022-07-06T13:20:18;2.20;;;2.10;;
58597;SDS011;60319;46.908;16.848;2022-07-06T13:25:19;2.88;;;2.63;;
58597;SDS011;60319;46.908;16.848;2022-07-06T13:30:19;4.38;;;1.80;;
58597;SDS011;60319;46.908;16.848;2022-07-06T13:35:20;2.53;;;1.52;;
58597;SDS011;60319;46.908;16.848;2022-07-06T13:40:21;2.15;;;1.80;;
58597;SDS011;60319;46.908;16.848;2022-07-06T13:45:21;1.55;;;1.45;;
58597;SDS011;60319;46.908;16.848;2022-07-06T13:50:22;4.25;;;1.58;;
58597;SDS011;60319;46.908;16.848;2022-07-06T13:55:22;1.67;;;1.58;;
58597;SDS011;60319;46.908;16.848;2022-07-06T14:00:23;1.20;;;1.10;;
58597;SDS011;60319;46.908;16.848;2022-07-06T14:05:23;1.38;;;1.20;;
58597;SDS011;60319;46.908;16.848;2022-07-06T14:10:24;4.20;;;1.33;;
58597;SDS011;60319;46.908;16.848;2022-07-06T14:15:24;1.55;;;1.42;;
58597;SDS011;60319;46.908;16.848;2022-07-06T14:20:25;1.35;;;1.25;;
58597;SDS011;60319;46.908;16.848;2022-07-06T14:25:26;1.30;;;1.20;;
58597;SDS011;60319;46.908;16.848;2022-07-06T14:30:29;1.70;;;1.60;;
58597;SDS011;60319;46.908;16.848;2022-07-06T14:35:30;1.90;;;1.30;;
58597;SDS011;60319;46.908;16.848;2022-07-06T14:40:31;1.80;;;1.70;;
58597;SDS011;60319;46.908;16.848;2022-07-06T14:45:32;1.67;;;1.55;;
58597;SDS011;60319;46.908;16.848;2022-07-06T14:50:32;2.10;;;1.90;;
58597;SDS011;60319;46.908;16.848;2022-07-06T14:55:34;1.70;;;1.50;;
58597;SDS011;60319;46.908;16.848;2022-07-06T15:00:38;1.73;;;1.63;;
58597;SDS011;60319;46.908;16.848;2022-07-06T15:05:38;2.60;;;1.70;;
58597;SDS011;60319;46.908;16.848;2022-07-06T15:10:39;1.42;;;1.33;;
58597;SDS011;60319;46.908;16.848;2022-07-06T15:15:39;1.88;;;1.77;;
58597;SDS011;60319;46.908;16.848;2022-07-06T15:20:40;3.20;;;1.60;;
58597;SDS011;60319;46.908;16.848;2022-07-06T15:25:40;1.40;;;1.30;;
58597;SDS011;60319;46.908;16.848;2022-07-06T15:30:41;1.70;;;1.60;;
58597;SDS011;60319;46.908;16.848;2022-07-06T15:35:43;1.70;;;1.60;;
58597;SDS011;60319;46.908;16.848;2022-07-06T15:40:44;1.95;;;1.73;;
58597;SDS011;60319;46.908;16.848;2022-07-06T15:45:47;3.17;;;1.58;;
58597;SDS011;60319;46.908;16.848;2022-07-06T15:50:54;2.22;;;1.70;;
58597;SDS011;60319;46.908;16.848;2022-07-06T15:55:56;2.22;;;1.80;;
58597;SDS011;60319;46.908;16.848;2022-07-06T16:00:57;1.85;;;1.75;;
58597;SDS011;60319;46.908;16.848;2022-07-06T16:05:58;2.45;;;2.17;;
58597;SDS011;60319;46.908;16.848;2022-07-06T16:11:00;2.22;;;2.08;;
58597;SDS011;60319;46.908;16.848;2022-07-06T16:16:01;2.20;;;2.10;;
58597;SDS011;60319;46.908;16.848;2022-07-06T16:21:02;2.60;;;2.20;;
58597;SDS011;60319;46.908;16.848;2022-07-06T16:26:02;3.33;;;2.05;;
58597;SDS011;60319;46.908;16.848;2022-07-06T16:31:03;3.00;;;2.20;;
58597;SDS011;60319;46.908;16.848;2022-07-06T16:36:04;2.40;;;2.20;;
58597;SDS011;60319;46.908;16.848;2022-07-06T16:41:06;2.25;;;2.15;;
58597;SDS011;60319;46.908;16.848;2022-07-06T16:46:09;2.83;;;2.60;;
58597;SDS011;60319;46.908;16.848;2022-07-06T16:51:10;3.88;;;2.40;;
58597;SDS011;60319;46.908;16.848;2022-07-06T16:56:10;2.50;;;2.30;;
58597;SDS011;60319;46.908;16.848;2022-07-06T17:01:11;2.60;;;2.40;;
58597;SDS011;60319;46.908;16.848;2022-07-06T17:06:11;2.13;;;2.03;;
58597;SDS011;60319;46.908;16.848;2022-07-06T17:11:12;2.38;;;2.20;;
58597;SDS011;60319;46.908;16.848;2022-07-06T17:16:13;2.53;;;2.33;;
58597;SDS011;60319;46.908;16.848;2022-07-06T17:21:14;2.60;;;2.40;;
58597;SDS011;60319;46.908;16.848;2022-07-06T17:26:18;3.35;;;2.45;;
58597;SDS011;60319;46.908;16.848;2022-07-06T17:31:19;2.30;;;2.20;;
58597;SDS011;60319;46.908;16.848;2022-07-06T17:36:19;3.33;;;2.60;;
58597;SDS011;60319;46.908;16.848;2022-07-06T17:41:20;3.28;;;2.42;;
58597;SDS011;60319;46.908;16.848;2022-07-06T17:46:21;2.85;;;2.60;;
58597;SDS011;60319;46.908;16.848;2022-07-06T17:51:22;3.38;;;2.58;;
58597;SDS011;60319;46.908;16.848;2022-07-06T17:56:23;2.88;;;2.67;;
58597;SDS011;60319;46.908;16.848;2022-07-06T18:01:23;3.10;;;2.70;;
58597;SDS011;60319;46.908;16.848;2022-07-06T18:06:24;2.78;;;2.55;;
58597;SDS011;60319;46.908;16.848;2022-07-06T18:11:25;3.80;;;2.75;;
58597;SDS011;60319;46.908;16.848;2022-07-06T18:16:25;2.70;;;2.50;;
58597;SDS011;60319;46.908;16.848;2022-07-06T18:21:26;2.97;;;2.78;;
58597;SDS011;60319;46.908;16.848;2022-07-06T18:26:27;2.78;;;2.53;;
58597;SDS011;60319;46.908;16.848;2022-07-06T18:31:30;3.05;;;2.75;;
58597;SDS011;60319;46.908;16.848;2022-07-06T18:36:31;4.25;;;2.60;;
58597;SDS011;60319;46.908;16.848;2022-07-06T18:41:32;2.72;;;2.53;;
58597;SDS011;60319;46.908;16.848;2022-07-06T18:46:33;2.80;;;2.60;;
58597;SDS011;60319;46.908;16.848;2022-07-06T18:51:34;3.10;;;2.88;;
58597;SDS011;60319;46.908;16.848;2022-07-06T18:56:37;3.47;;;2.75;;
58597;SDS011;60319;46.908;16.848;2022-07-06T19:01:38;2.92;;;2.60;;
58597;SDS011;60319;46.908;16.848;2022-07-06T19:06:39;3.05;;;2.67;;
58597;SDS011;60319;46.908;16.848;2022-07-06T19:11:39;2.85;;;2.65;;
58597;SDS011;60319;46.908;16.848;2022-07-06T19:16:40;3.28;;;3.08;;
58597;SDS011;60319;46.908;16.848;2022-07-06T19:21:40;3.38;;;3.17;;
58597;SDS011;60319;46.908;16.848;2022-07-06T19:26:41;11.57;;;6.80;;
58597;SDS011;60319;46.908;16.848;2022-07-06T19:31:42;10.52;;;6.93;;
58597;SDS011;60319;46.908;16.848;2022-07-06T19:36:42;5.60;;;4.72;;
58597;SDS011;60319;46.908;16.848;2022-07-06T19:41:44;4.40;;;3.70;;
58597;SDS011;60319;46.908;16.848;2022-07-06T19:46:45;3.88;;;3.53;;
58597;SDS011;60319;46.908;16.848;2022-07-06T19:51:46;3.42;;;3.10;;
58597;SDS011;60319;46.908;16.848;2022-07-06T19:56:50;2.88;;;2.67;;
58597;SDS011;60319;46.908;16.848;2022-07-06T20:01:50;3.13;;;2.53;;
58597;SDS011;60319;46.908;16.848;2022-07-06T20:06:51;2.80;;;2.60;;
58597;SDS011;60319;46.908;16.848;2022-07-06T20:11:51;3.33;;;2.97;;
58597;SDS011;60319;46.908;16.848;2022-07-06T20:16:52;2.97;;;2.72;;
58597;SDS011;60319;46.908;16.848;2022-07-06T20:21:53;3.78;;;3.47;;
58597;SDS011;60319;46.908;16.848;2022-07-06T20:26:56;3.50;;;3.05;;
58597;SDS011;60319;46.908;16.848;2022-07-06T20:31:57;2.92;;;2.65;;
58597;SDS011;60319;46.908;16.848;2022-07-06T20:36:58;3.33;;;2.90;;
58597;SDS011;60319;46.908;16.848;2022-07-06T20:41:58;4.18;;;2.83;;
58597;SDS011;60319;46.908;16.848;2022-07-06T20:46:59;2.90;;;2.70;;
58597;SDS011;60319;46.908;16.848;2022-07-06T20:51:59;3.60;;;3.28;;
58597;SDS011;60319;46.908;16.848;2022-07-06T20:57:00;2.95;;;2.75;;
58597;SDS011;60319;46.908;16.848;2022-07-06T21:02:01;3.20;;;2.90;;
58597;SDS011;60319;46.908;16.848;2022-07-06T21:07:03;6.68;;;3.10;;
58597;SDS011;60319;46.908;16.848;2022-07-06T21:12:04;2.95;;;2.75;;
58597;SDS011;60319;46.908;16.848;2022-07-06T21:17:05;3.15;;;2.85;;
58597;SDS011;60319;46.908;16.848;2022-07-06T21:22:06;3.15;;;2.70;;
58597;SDS011;60319;46.908;16.848;2022-07-06T21:27:07;2.85;;;2.65;;
58597;SDS011;60319;46.908;16.848;2022-07-06T21:32:07;2.97;;;2.70;;
58597;SDS011;60319;46.908;16.848;2022-07-06T21:37:08;2.53;;;2.42;;
58597;SDS011;60319;46.908;16.848;2022-07-06T21:42:09;3.97;;;2.70;;
58597;SDS011;60319;46.908;16.848;2022-07-06T21:47:09;2.97;;;2.63;;
58597;SDS011;60319;46.908;16.848;2022-07-06T21:52:10;3.05;;;2.75;;
58597;SDS011;60319;46.908;16.848;2022-07-06T21:57:10;3.15;;;2.80;;
58597;SDS011;60319;46.908;16.848;2022-07-06T22:02:11;2.90;;;2.70;;
58597;SDS011;60319;46.908;16.848;2022-07-06T22:07:11;3.60;;;3.15;;
58597;SDS011;60319;46.908;16.848;2022-07-06T22:12:12;2.95;;;2.80;;
58597;SDS011;60319;46.908;16.848;2022-07-06T22:17:12;4.07;;;3.10;;
58597;SDS011;60319;46.908;16.848;2022-07-06T22:22:13;3.20;;;2.90;;
58597;SDS011;60319;46.908;16.848;2022-07-06T22:27:13;2.58;;;2.38;;
58597;SDS011;60319;46.908;16.848;2022-07-06T22:32:14;5.53;;;3.00;;
58597;SDS011;60319;46.908;16.848;2022-07-06T22:37:15;2.60;;;2.40;;
58597;SDS011;60319;46.908;16.848;2022-07-06T22:42:16;2.92;;;2.72;;
58597;SDS011;60319;46.908;16.848;2022-07-06T22:47:19;3.10;;;2.85;;
58597;SDS011;60319;46.908;16.848;2022-07-06T22:52:20;3.35;;;3.05;;
58597;SDS011;60319;46.908;16.848;2022-07-06T22:57:21;2.85;;;2.45;;
58597;SDS011;60319;46.908;16.848;2022-07-06T23:02:21;2.85;;;2.60;;
58597;SDS011;60319;46.908;16.848;2022-07-06T23:07:25;3.22;;;2.90;;
58597;SDS011;60319;46.908;16.848;2022-07-06T23:12:26;2.92;;;2.72;;
58597;SDS011;60319;46.908;16.848;2022-07-06T23:17:26;3.13;;;2.83;;
58597;SDS011;60319;46.908;16.848;2022-07-06T23:22:27;3.00;;;2.80;;
58597;SDS011;60319;46.908;16.848;2022-07-06T23:27:30;2.67;;;2.50;;
58597;SDS011;60319;46.908;16.848;2022-07-06T23:32:31;4.50;;;2.65;;
58597;SDS011;60319;46.908;16.848;2022-07-06T23:37:33;2.85;;;2.65;;
58597;SDS011;60319;46.908;16.848;2022-07-06T23:42:34;2.90;;;2.65;;
58597;SDS011;60319;46.908;16.848;2022-07-06T23:47:34;2.83;;;2.63;;
58597;SDS011;60319;46.908;16.848;2022-07-06T23:52:35;3.55;;;3.17;;
58597;SDS011;60319;46.908;16.848;2022-07-06T23:57:35;3.38;;;2.90;;
